createdAt,value
2023-01-19T00:00:21.172Z,95765.03
2023-01-19T00:02:48.206Z,95758.16
2023-01-19T00:05:15.172Z,95769.03
2023-01-19T00:07:42.259Z,95771.69
2023-01-19T00:10:10.135Z,95773.69
2023-01-19T00:12:37.051Z,95776.88
2023-01-19T00:15:04.387Z,95787.09
2023-01-19T00:17:31.424Z,95784.16
2023-01-19T00:19:58.409Z,95783.63
2023-01-19T00:22:25.363Z,95788.94
2023-01-19T00:24:52.381Z,95798.59
2023-01-19T00:27:19.368Z,95798.00
2023-01-19T00:29:46.353Z,95803.19
2023-01-19T00:32:13.344Z,95795.97
2023-01-19T00:34:42.756Z,95798.47
2023-01-19T00:37:10.007Z,95806.97
2023-01-19T00:39:37.039Z,95804.06
2023-01-19T00:42:22.512Z,95814.78
2023-01-19T00:44:49.528Z,95825.19
2023-01-19T00:47:16.444Z,95823.03
2023-01-19T00:49:43.432Z,95823.03
2023-01-19T00:52:10.979Z,95817.69
2023-01-19T00:54:37.887Z,95825.06
2023-01-19T00:57:05.005Z,95827.09
2023-01-19T00:59:32.052Z,95826.75
2023-01-19T01:01:59.206Z,95836.63
2023-01-19T01:04:26.206Z,95838.03
2023-01-19T01:06:53.189Z,95842.28
2023-01-19T01:09:20.093Z,95844.59
2023-01-19T01:11:47.012Z,95850.00
2023-01-19T01:14:14.033Z,95844.03
2023-01-19T01:16:41.166Z,95846.91
2023-01-19T01:19:08.184Z,95849.41
2023-01-19T01:21:35.771Z,95846.69
2023-01-19T01:24:02.922Z,95855.47
2023-01-19T01:26:29.911Z,95858.78
2023-01-19T01:28:56.867Z,95863.75
2023-01-19T01:31:23.821Z,95861.22
2023-01-19T01:33:50.847Z,95864.84
2023-01-19T01:36:19.104Z,95860.41
2023-01-19T01:38:46.138Z,95862.31
2023-01-19T01:41:13.084Z,95868.25
2023-01-19T01:43:46.689Z,95865.34
2023-01-19T01:46:15.680Z,95869.72
2023-01-19T01:49:07.464Z,95867.47
2023-01-19T01:51:39.373Z,95870.38
2023-01-19T01:54:09.150Z,95875.84
2023-01-19T01:56:40.550Z,95880.25
2023-01-19T01:59:18.161Z,95878.00
2023-01-19T02:02:03.826Z,95884.28
2023-01-19T02:04:31.313Z,95887.84
2023-01-19T02:07:16.603Z,95883.34
2023-01-19T02:10:02.339Z,95876.53
2023-01-19T02:12:47.910Z,95889.19
2023-01-19T02:15:17.136Z,95888.31
2023-01-19T02:17:44.096Z,95890.84
2023-01-19T02:20:11.248Z,95897.56
2023-01-19T02:22:49.576Z,95891.56
2023-01-19T02:25:16.802Z,95895.56
2023-01-19T02:27:43.749Z,95897.81
2023-01-19T02:30:11.127Z,95897.91
2023-01-19T02:32:38.132Z,95899.94
2023-01-19T02:35:05.742Z,95897.31
2023-01-19T02:37:34.336Z,95903.91
2023-01-19T02:40:02.021Z,95911.56
2023-01-19T02:42:49.839Z,95906.34
2023-01-19T02:45:18.704Z,95913.69
2023-01-19T02:47:47.405Z,95905.94
2023-01-19T02:50:50.596Z,95905.84
2023-01-19T02:53:32.783Z,95904.06
2023-01-19T02:56:34.996Z,95911.91
2023-01-19T02:59:15.851Z,95911.56
2023-01-19T03:01:54.100Z,95917.16
2023-01-19T03:04:50.766Z,95912.72
2023-01-19T03:07:42.119Z,95915.06
2023-01-19T03:10:16.038Z,95907.22
2023-01-19T03:12:57.821Z,95909.13
2023-01-19T03:15:45.080Z,95919.78
2023-01-19T03:18:12.368Z,95907.63
2023-01-19T03:20:39.336Z,95918.56
2023-01-19T03:23:08.284Z,95912.66
2023-01-19T03:25:35.971Z,95915.09
2023-01-19T03:28:02.918Z,95913.16
2023-01-19T03:30:32.548Z,95910.34
2023-01-19T03:33:09.371Z,95913.28
2023-01-19T03:35:37.541Z,95914.34
2023-01-19T03:38:08.713Z,95912.97
2023-01-19T03:40:35.674Z,95919.25
2023-01-19T03:43:03.242Z,95914.69
2023-01-19T03:45:31.473Z,95921.56
2023-01-19T03:47:59.046Z,95921.03
2023-01-19T03:50:27.889Z,95915.41
2023-01-19T03:53:09.757Z,95919.81
2023-01-19T03:55:37.898Z,95914.16
2023-01-19T03:58:04.848Z,95915.84
2023-01-19T04:00:31.925Z,95913.53
2023-01-19T04:02:59.305Z,95917.03
2023-01-19T04:05:26.438Z,95916.72
2023-01-19T04:07:54.116Z,95908.16
2023-01-19T04:10:21.188Z,95907.56
2023-01-19T04:12:48.212Z,95911.38
2023-01-19T04:15:15.220Z,95913.28
2023-01-19T04:17:42.186Z,95910.50
2023-01-19T04:20:09.743Z,95912.69
2023-01-19T04:22:36.799Z,95923.69
2023-01-19T04:25:04.094Z,95925.84
2023-01-19T04:27:31.077Z,95933.59
2023-01-19T04:29:58.025Z,95929.53
2023-01-19T04:32:25.031Z,95916.47
2023-01-19T04:34:52.054Z,95913.34
2023-01-19T04:37:19.021Z,95914.56
2023-01-19T04:39:46.004Z,95917.03
2023-01-19T04:42:13.114Z,95917.91
2023-01-19T04:44:40.091Z,95917.53
2023-01-19T04:47:07.185Z,95918.59
2023-01-19T04:49:34.187Z,95921.88
2023-01-19T04:52:01.337Z,95932.75
2023-01-19T04:54:28.373Z,95927.88
2023-01-19T04:56:55.530Z,95925.59
2023-01-19T04:59:22.490Z,95927.06
2023-01-19T05:01:49.395Z,95924.88
2023-01-19T05:04:16.525Z,95921.59
2023-01-19T05:06:43.464Z,95926.69
2023-01-19T05:09:13.270Z,95934.69
2023-01-19T05:11:40.212Z,95928.47
2023-01-19T05:14:07.306Z,95937.84
2023-01-19T05:16:34.757Z,95940.66
2023-01-19T05:19:01.692Z,95938.59
2023-01-19T05:21:28.713Z,95938.25
2023-01-19T05:23:55.650Z,95941.66
2023-01-19T05:26:22.629Z,95944.44
2023-01-19T05:28:50.400Z,95938.16
2023-01-19T05:31:18.779Z,95944.81
2023-01-19T05:33:46.539Z,95943.66
2023-01-19T05:36:13.655Z,95942.28
2023-01-19T05:38:40.616Z,95940.06
2023-01-19T05:41:07.645Z,95942.22
2023-01-19T05:43:34.585Z,95944.53
2023-01-19T05:46:01.658Z,95933.94
2023-01-19T05:48:28.642Z,95945.88
2023-01-19T05:51:01.577Z,95945.97
2023-01-19T05:53:28.739Z,95947.44
2023-01-19T05:56:00.527Z,95945.06
2023-01-19T05:58:27.471Z,95944.38
2023-01-19T06:00:54.658Z,95955.31
2023-01-19T06:03:21.680Z,95949.94
2023-01-19T06:05:48.713Z,95944.13
2023-01-19T06:08:15.670Z,95955.38
2023-01-19T06:10:42.774Z,95951.19
2023-01-19T06:13:11.242Z,95955.38
2023-01-19T06:15:38.249Z,95962.72
2023-01-19T06:18:05.294Z,95970.75
2023-01-19T06:20:32.243Z,95974.13
2023-01-19T06:22:59.643Z,95975.25
2023-01-19T06:25:26.843Z,95984.97
2023-01-19T06:27:53.759Z,95987.75
2023-01-19T06:30:20.823Z,95992.41
2023-01-19T06:32:47.802Z,96000.47
2023-01-19T06:35:14.911Z,96005.66
2023-01-19T06:37:41.899Z,96011.34
2023-01-19T06:40:09.473Z,96014.06
2023-01-19T06:42:36.405Z,96024.28
2023-01-19T06:45:03.638Z,96021.66
2023-01-19T06:47:30.887Z,96035.38
2023-01-19T06:49:57.922Z,96032.56
2023-01-19T06:52:24.868Z,96033.44
2023-01-19T06:54:51.832Z,96034.16
2023-01-19T06:57:18.992Z,96030.25
2023-01-19T06:59:46.042Z,96037.19
2023-01-19T07:02:26.240Z,96041.59
2023-01-19T07:04:55.821Z,96045.78
2023-01-19T07:07:22.788Z,96050.50
2023-01-19T07:09:49.775Z,96045.13
2023-01-19T07:12:21.515Z,96052.38
2023-01-19T07:14:49.607Z,96055.72
2023-01-19T07:17:16.687Z,96060.97
2023-01-19T07:19:43.654Z,96066.44
2023-01-19T07:22:10.634Z,96070.66
2023-01-19T07:24:38.252Z,96063.56
2023-01-19T07:27:05.577Z,96073.22
2023-01-19T07:29:32.693Z,96067.75
2023-01-19T07:31:59.762Z,96062.69
2023-01-19T07:34:26.786Z,96074.81
2023-01-19T07:36:54.050Z,96075.59
2023-01-19T07:39:21.112Z,96072.88
2023-01-19T07:41:48.867Z,96077.66
2023-01-19T07:44:15.901Z,96078.59
2023-01-19T07:46:43.448Z,96093.41
2023-01-19T07:49:10.344Z,96093.09
2023-01-19T07:51:37.551Z,96089.38
2023-01-19T07:54:04.662Z,96093.34
2023-01-19T07:56:33.901Z,96098.22
2023-01-19T07:59:01.184Z,96092.78
2023-01-19T08:01:28.568Z,96108.38
2023-01-19T08:03:55.617Z,96107.22
2023-01-19T08:06:24.272Z,96107.50
2023-01-19T08:08:51.228Z,96107.72
2023-01-19T08:11:18.214Z,96103.69
2023-01-19T08:13:45.259Z,96101.03
2023-01-19T08:16:12.290Z,96101.94
2023-01-19T08:18:39.240Z,96098.34
2023-01-19T08:21:06.282Z,96104.28
2023-01-19T08:23:33.174Z,96111.59
2023-01-19T08:26:00.145Z,96110.31
2023-01-19T08:28:27.217Z,96111.44
2023-01-19T08:30:54.709Z,96112.84
2023-01-19T08:33:23.190Z,96111.44
2023-01-19T08:35:53.719Z,96116.84
2023-01-19T08:38:20.719Z,96110.13
2023-01-19T08:40:47.658Z,96105.31
2023-01-19T08:43:15.643Z,96106.56
2023-01-19T08:45:48.459Z,96111.56
2023-01-19T08:48:16.653Z,96114.06
2023-01-19T08:50:45.884Z,96121.34
2023-01-19T08:53:12.846Z,96126.00
2023-01-19T08:55:39.775Z,96133.47
2023-01-19T08:58:07.977Z,96140.59
2023-01-19T09:00:35.366Z,96125.50
2023-01-19T09:03:04.324Z,96121.50
2023-01-19T09:05:35.620Z,96122.09
2023-01-19T09:08:03.865Z,96131.25
2023-01-19T09:10:36.192Z,96129.59
2023-01-19T09:13:08.460Z,96132.38
2023-01-19T09:15:37.803Z,96133.22
2023-01-19T09:18:06.953Z,96138.03
2023-01-19T09:20:36.062Z,96139.78
2023-01-19T09:23:03.154Z,96144.06
2023-01-19T09:25:30.150Z,96139.78
2023-01-19T09:27:57.146Z,96136.03
2023-01-19T09:30:24.467Z,96139.88
2023-01-19T09:32:51.436Z,96150.41
2023-01-19T09:35:18.388Z,96145.72
2023-01-19T09:37:48.180Z,96147.66
2023-01-19T09:40:15.529Z,96148.06
2023-01-19T09:42:43.969Z,96155.34
2023-01-19T09:45:17.790Z,96151.63
2023-01-19T09:47:44.770Z,96152.00
2023-01-19T09:50:32.137Z,96143.41
2023-01-19T09:53:05.485Z,96145.75
2023-01-19T09:55:32.548Z,96145.59
2023-01-19T09:57:59.877Z,96143.41
2023-01-19T10:00:28.061Z,96141.50
2023-01-19T10:03:01.719Z,96137.00
2023-01-19T10:05:33.574Z,96132.59
2023-01-19T10:08:26.988Z,96131.34
2023-01-19T10:10:55.199Z,96124.50
2023-01-19T10:13:28.446Z,96136.13
2023-01-19T10:16:31.659Z,96130.72
2023-01-19T10:19:12.160Z,96139.09
2023-01-19T10:21:43.490Z,96127.50
2023-01-19T10:24:16.215Z,96130.25
2023-01-19T10:26:45.782Z,96134.97
2023-01-19T10:29:16.198Z,96127.63
2023-01-19T10:31:43.185Z,96123.47
2023-01-19T10:34:13.450Z,96126.69
2023-01-19T10:36:40.420Z,96123.69
2023-01-19T10:39:07.624Z,96125.97
2023-01-19T10:41:47.028Z,96118.53
2023-01-19T10:44:15.368Z,96121.53
2023-01-19T10:46:46.802Z,96126.19
2023-01-19T10:49:38.989Z,96124.72
2023-01-19T10:52:07.768Z,96120.72
2023-01-19T10:54:36.379Z,96115.97
2023-01-19T10:57:05.025Z,96128.66
2023-01-19T10:59:44.247Z,96128.25
2023-01-19T11:02:21.674Z,96118.53
2023-01-19T11:04:50.238Z,96123.81
2023-01-19T11:07:21.087Z,96121.94
2023-01-19T11:09:48.327Z,96112.91
2023-01-19T11:12:22.081Z,96113.88
2023-01-19T11:14:49.978Z,96118.19
2023-01-19T11:17:25.420Z,96119.59
2023-01-19T11:19:59.787Z,96106.69
2023-01-19T11:22:33.298Z,96119.22
2023-01-19T11:25:04.594Z,96114.19
2023-01-19T11:27:32.732Z,96112.16
2023-01-19T11:30:09.897Z,96112.94
2023-01-19T11:32:37.267Z,96120.47
2023-01-19T11:35:32.053Z,96121.31
2023-01-19T11:38:18.314Z,96114.50
2023-01-19T11:40:53.300Z,96115.00
2023-01-19T11:43:21.611Z,96112.47
2023-01-19T11:45:48.692Z,96106.56
2023-01-19T11:48:33.858Z,96114.41
2023-01-19T11:51:02.675Z,96104.56
2023-01-19T11:53:33.946Z,96096.72
2023-01-19T11:56:04.997Z,96098.59
2023-01-19T11:58:33.425Z,96095.97
2023-01-19T12:01:26.821Z,96095.81
2023-01-19T12:04:29.181Z,96091.59
2023-01-19T12:06:56.700Z,96082.31
2023-01-19T12:09:27.322Z,96080.88
2023-01-19T12:12:08.023Z,96081.03
2023-01-19T12:14:47.395Z,96079.13
2023-01-19T12:17:24.301Z,96084.94
2023-01-19T12:19:55.564Z,96081.28
2023-01-19T12:22:22.630Z,96089.44
2023-01-19T12:24:55.562Z,96085.72
2023-01-19T12:27:53.161Z,96086.25
2023-01-19T12:30:27.814Z,96079.16
2023-01-19T12:33:25.954Z,96075.91
2023-01-19T12:36:18.279Z,96074.66
2023-01-19T12:38:57.531Z,96071.69
2023-01-19T12:41:37.273Z,96066.47
2023-01-19T12:44:10.900Z,96072.66
2023-01-19T12:46:50.154Z,96073.66
2023-01-19T12:49:28.111Z,96066.59
2023-01-19T12:52:11.826Z,96077.19
2023-01-19T12:54:43.987Z,96063.78
2023-01-19T12:57:29.029Z,96069.84
2023-01-19T13:00:05.358Z,96074.13
2023-01-19T13:02:46.526Z,96072.09
2023-01-19T13:05:18.331Z,96069.13
2023-01-19T13:08:04.953Z,96066.94
2023-01-19T13:11:00.026Z,96061.72
2023-01-19T13:13:29.081Z,96068.44
2023-01-19T13:15:56.477Z,96060.69
2023-01-19T13:18:24.650Z,96058.47
2023-01-19T13:20:57.698Z,96060.47
2023-01-19T13:23:28.806Z,96068.59
2023-01-19T13:26:02.961Z,96062.09
2023-01-19T13:28:37.767Z,96062.03
2023-01-19T13:31:05.271Z,96062.03
2023-01-19T13:33:39.199Z,96066.50
2023-01-19T13:36:16.676Z,96061.53
2023-01-19T13:38:43.664Z,96067.25
2023-01-19T13:41:10.762Z,96066.88
2023-01-19T13:43:37.947Z,96066.09
2023-01-19T13:46:05.027Z,96072.84
2023-01-19T13:48:31.989Z,96069.56
2023-01-19T13:51:10.651Z,96072.09
2023-01-19T13:53:37.608Z,96077.66
2023-01-19T13:56:13.467Z,96074.31
2023-01-19T13:58:40.440Z,96077.53
2023-01-19T14:01:22.492Z,96075.28
2023-01-19T14:03:52.415Z,96074.25
2023-01-19T14:06:24.126Z,96082.06
2023-01-19T14:09:09.603Z,96086.78
2023-01-19T14:11:36.587Z,96084.69
2023-01-19T14:14:03.548Z,96093.09
2023-01-19T14:16:30.592Z,96084.34
2023-01-19T14:19:02.345Z,96082.00
2023-01-19T14:21:39.860Z,96088.56
2023-01-19T14:24:17.005Z,96084.19
2023-01-19T14:26:46.476Z,96088.84
2023-01-19T14:29:24.481Z,96089.81
2023-01-19T14:31:51.805Z,96094.84
2023-01-19T14:34:44.921Z,96094.53
2023-01-19T14:37:26.892Z,96094.75
2023-01-19T14:40:10.884Z,96088.28
2023-01-19T14:42:40.141Z,96078.50
2023-01-19T14:45:14.250Z,96082.38
2023-01-19T14:47:42.020Z,96079.03
2023-01-19T14:50:21.105Z,96084.94
2023-01-19T14:52:52.806Z,96089.81
2023-01-19T14:55:21.908Z,96091.00
2023-01-19T14:57:49.115Z,96095.09
2023-01-19T15:00:18.196Z,96085.09
2023-01-19T15:02:46.086Z,96092.44
2023-01-19T15:05:13.607Z,96091.69
2023-01-19T15:07:41.720Z,96091.91
2023-01-19T15:10:26.900Z,96101.19
2023-01-19T15:12:54.404Z,96093.44
2023-01-19T15:15:28.907Z,96086.78
2023-01-19T15:17:56.257Z,96094.25
2023-01-19T15:20:23.542Z,96103.84
2023-01-19T15:22:50.678Z,96097.56
2023-01-19T15:25:21.884Z,96095.81
2023-01-19T15:27:48.815Z,96101.88
2023-01-19T15:30:17.623Z,96098.19
2023-01-19T15:32:44.734Z,96109.59
2023-01-19T15:35:16.067Z,96104.47
2023-01-19T15:37:42.865Z,96103.69
2023-01-19T15:40:10.673Z,96100.03
2023-01-19T15:42:37.656Z,96104.41
2023-01-19T15:45:27.982Z,96105.75
2023-01-19T15:47:54.911Z,96104.16
2023-01-19T15:50:21.951Z,96110.75
2023-01-19T15:52:48.897Z,96109.69
2023-01-19T15:55:16.058Z,96107.41
2023-01-19T15:57:43.050Z,96112.00
2023-01-19T16:00:10.799Z,96116.53
2023-01-19T16:02:37.777Z,96123.03
2023-01-19T16:05:05.229Z,96116.53
2023-01-19T16:07:33.708Z,96120.34
2023-01-19T16:10:00.957Z,96122.69
2023-01-19T16:12:30.729Z,96127.78
2023-01-19T16:14:57.636Z,96126.72
2023-01-19T16:17:24.663Z,96123.31
2023-01-19T16:19:51.561Z,96121.59
2023-01-19T16:22:18.518Z,96117.91
2023-01-19T16:24:45.553Z,96132.09
2023-01-19T16:27:12.574Z,96120.63
2023-01-19T16:29:39.543Z,96116.13
2023-01-19T16:32:06.599Z,96122.34
2023-01-19T16:34:33.541Z,96121.91
2023-01-19T16:37:00.495Z,96121.41
2023-01-19T16:39:27.464Z,96121.44
2023-01-19T16:41:54.404Z,96121.44
2023-01-19T16:44:21.418Z,96115.25
2023-01-19T16:46:49.881Z,96122.13
2023-01-19T16:49:18.753Z,96119.28
2023-01-19T16:51:46.061Z,96130.25
2023-01-19T16:54:13.674Z,96127.16
2023-01-19T16:56:41.544Z,96130.81
2023-01-19T16:59:10.931Z,96129.53
2023-01-19T17:01:38.415Z,96129.94
2023-01-19T17:04:05.593Z,96129.13
2023-01-19T17:06:32.697Z,96130.72
2023-01-19T17:08:59.708Z,96137.91
2023-01-19T17:11:28.429Z,96136.84
2023-01-19T17:14:00.307Z,96139.09
2023-01-19T17:16:28.091Z,96139.38
2023-01-19T17:18:56.563Z,96142.25
2023-01-19T17:21:23.512Z,96149.56
2023-01-19T17:23:51.833Z,96136.59
2023-01-19T17:26:19.019Z,96141.06
2023-01-19T17:28:46.063Z,96139.50
2023-01-19T17:31:22.128Z,96150.41
2023-01-19T17:33:49.854Z,96142.94
2023-01-19T17:36:22.358Z,96142.34
2023-01-19T17:38:49.978Z,96145.53
2023-01-19T17:41:18.629Z,96143.25
2023-01-19T17:43:45.638Z,96142.66
2023-01-19T17:46:12.826Z,96142.81
2023-01-19T17:48:39.808Z,96146.31
2023-01-19T17:51:08.378Z,96143.00
2023-01-19T17:53:39.022Z,96146.53
2023-01-19T17:56:08.123Z,96146.84
2023-01-19T17:58:35.386Z,96153.38
2023-01-19T18:01:09.190Z,96147.53
2023-01-19T18:03:36.411Z,96150.97
2023-01-19T18:06:03.392Z,96145.22
2023-01-19T18:08:30.340Z,96145.97
2023-01-19T18:10:58.065Z,96152.91
2023-01-19T18:13:25.094Z,96154.91
2023-01-19T18:15:52.229Z,96151.56
2023-01-19T18:18:19.237Z,96153.84
2023-01-19T18:20:46.228Z,96156.50
2023-01-19T18:23:13.574Z,96152.66
2023-01-19T18:25:40.561Z,96156.31
2023-01-19T18:28:07.614Z,96160.34
2023-01-19T18:30:34.706Z,96154.97
2023-01-19T18:33:01.772Z,96157.03
2023-01-19T18:35:28.963Z,96155.47
2023-01-19T18:37:57.098Z,96152.25
2023-01-19T18:40:24.396Z,96150.16
2023-01-19T18:42:51.549Z,96151.63
2023-01-19T18:45:18.482Z,96151.25
2023-01-19T18:47:45.467Z,96157.63
2023-01-19T18:50:14.442Z,96154.16
2023-01-19T18:52:41.657Z,96155.91
2023-01-19T18:55:08.966Z,96147.88
2023-01-19T18:57:36.011Z,96145.81
2023-01-19T19:00:03.963Z,96148.97
2023-01-19T19:02:31.043Z,96153.38
2023-01-19T19:04:57.994Z,96151.69
2023-01-19T19:07:24.942Z,96149.69
2023-01-19T19:09:51.921Z,96149.94
2023-01-19T19:12:18.840Z,96150.06
2023-01-19T19:14:45.776Z,96143.56
2023-01-19T19:17:12.711Z,96149.63
2023-01-19T19:19:39.678Z,96154.03
2023-01-19T19:22:06.609Z,96153.66
2023-01-19T19:24:33.609Z,96158.72
2023-01-19T19:27:00.567Z,96155.41
2023-01-19T19:29:28.509Z,96154.78
2023-01-19T19:31:56.642Z,96157.69
2023-01-19T19:34:24.743Z,96158.00
2023-01-19T19:36:51.678Z,96165.63
2023-01-19T19:39:18.689Z,96166.63
2023-01-19T19:41:45.669Z,96167.09
2023-01-19T19:44:15.431Z,96160.47
2023-01-19T19:46:42.470Z,96164.09
2023-01-19T19:49:09.474Z,96165.00
2023-01-19T19:51:36.453Z,96162.66
2023-01-19T19:54:03.496Z,96170.50
2023-01-19T19:56:31.211Z,96171.66
2023-01-19T19:58:59.371Z,96168.44
2023-01-19T20:01:32.498Z,96165.16
2023-01-19T20:04:07.619Z,96170.13
2023-01-19T20:06:38.851Z,96167.41
2023-01-19T20:09:09.200Z,96169.50
2023-01-19T20:11:36.338Z,96157.75
2023-01-19T20:14:06.897Z,96165.75
2023-01-19T20:16:33.935Z,96166.03
2023-01-19T20:19:01.099Z,96166.91
2023-01-19T20:21:32.086Z,96164.13
2023-01-19T20:24:04.148Z,96170.53
2023-01-19T20:26:32.511Z,96171.34
2023-01-19T20:29:02.897Z,96171.38
2023-01-19T20:31:31.180Z,96171.31
2023-01-19T20:33:59.797Z,96181.00
2023-01-19T20:36:26.873Z,96172.22
2023-01-19T20:38:54.222Z,96181.78
2023-01-19T20:41:21.760Z,96167.53
2023-01-19T20:43:48.913Z,96174.81
2023-01-19T20:46:15.916Z,96177.13
2023-01-19T20:48:42.939Z,96174.56
2023-01-19T20:51:11.582Z,96168.97
2023-01-19T20:53:39.265Z,96166.69
2023-01-19T20:56:07.244Z,96169.72
2023-01-19T20:58:34.294Z,96170.13
2023-01-19T21:01:19.786Z,96173.38
2023-01-19T21:03:46.892Z,96174.34
2023-01-19T21:06:13.972Z,96178.00
2023-01-19T21:08:41.040Z,96180.88
2023-01-19T21:11:08.380Z,96172.22
2023-01-19T21:13:35.414Z,96174.88
2023-01-19T21:16:02.464Z,96181.97
2023-01-19T21:18:29.423Z,96182.91
2023-01-19T21:20:59.354Z,96182.78
2023-01-19T21:23:26.700Z,96180.47
2023-01-19T21:25:55.353Z,96185.84
2023-01-19T21:28:25.036Z,96185.69
2023-01-19T21:30:52.786Z,96187.66
2023-01-19T21:33:20.002Z,96189.63
2023-01-19T21:35:54.498Z,96181.28
2023-01-19T21:38:21.544Z,96180.25
2023-01-19T21:40:48.589Z,96175.97
2023-01-19T21:43:16.639Z,96177.22
2023-01-19T21:45:43.648Z,96172.09
2023-01-19T21:48:10.703Z,96176.59
2023-01-19T21:50:37.721Z,96174.66
2023-01-19T21:53:07.727Z,96180.38
2023-01-19T21:55:34.768Z,96180.84
2023-01-19T21:58:01.738Z,96183.09
2023-01-19T22:00:31.737Z,96185.66
2023-01-19T22:03:03.804Z,96178.47
2023-01-19T22:05:36.811Z,96186.38
2023-01-19T22:08:05.214Z,96187.88
2023-01-19T22:10:32.202Z,96183.50
2023-01-19T22:12:59.193Z,96185.22
2023-01-19T22:15:26.098Z,96192.22
2023-01-19T22:17:53.047Z,96197.88
2023-01-19T22:20:20.032Z,96192.41
2023-01-19T22:22:47.015Z,96194.56
2023-01-19T22:25:15.068Z,96201.88
2023-01-19T22:27:42.408Z,96200.78
2023-01-19T22:30:09.946Z,96191.66
2023-01-19T22:32:36.857Z,96196.41
2023-01-19T22:35:04.108Z,96205.19
2023-01-19T22:37:35.124Z,96202.66
2023-01-19T22:40:03.150Z,96207.09
2023-01-19T22:42:30.050Z,96210.38
2023-01-19T22:44:57.015Z,96202.97
2023-01-19T22:47:23.973Z,96207.47
2023-01-19T22:49:50.915Z,96214.47
2023-01-19T22:52:32.908Z,96211.75
2023-01-19T22:55:00.215Z,96213.91
2023-01-19T22:57:27.181Z,96212.06
2023-01-19T22:59:54.122Z,96212.19
2023-01-19T23:02:21.240Z,96224.78
2023-01-19T23:04:48.274Z,96218.66
2023-01-19T23:07:15.233Z,96218.88
2023-01-19T23:09:42.205Z,96220.72
2023-01-19T23:12:09.149Z,96217.44
2023-01-19T23:14:36.343Z,96215.59
2023-01-19T23:17:03.364Z,96215.94
2023-01-19T23:19:30.286Z,96217.59
2023-01-19T23:21:57.333Z,96220.84
2023-01-19T23:24:24.267Z,96211.59
2023-01-19T23:26:51.288Z,96208.81
2023-01-19T23:29:18.395Z,96212.69
2023-01-19T23:31:47.006Z,96202.00
2023-01-19T23:34:14.264Z,96208.75
2023-01-19T23:36:41.673Z,96205.16
2023-01-19T23:39:18.951Z,96208.88
2023-01-19T23:41:46.000Z,96207.75
2023-01-19T23:44:13.073Z,96205.53
2023-01-19T23:46:40.124Z,96211.38
2023-01-19T23:49:07.146Z,96207.44
2023-01-19T23:51:34.175Z,96206.78
2023-01-19T23:54:01.181Z,96216.88
2023-01-19T23:56:32.933Z,96221.94
2023-01-19T23:59:02.185Z,96221.47
